sensor_id;sensor_type;location;lat;lon;timestamp;P1;durP1;ratioP1;P2;durP2;ratioP2
60076;SDS011;45950;45.208;20.374;2024-02-26T00:01:01;15.02;;;10.07;;
60076;SDS011;45950;45.208;20.374;2024-02-26T00:03:28;14.15;;;9.35;;
60076;SDS011;45950;45.208;20.374;2024-02-26T00:05:54;14.88;;;10.30;;
60076;SDS011;45950;45.208;20.374;2024-02-26T00:08:21;19.05;;;11.75;;
60076;SDS011;45950;45.208;20.374;2024-02-26T00:10:49;15.65;;;10.98;;
60076;SDS011;45950;45.208;20.374;2024-02-26T00:13:16;18.33;;;11.80;;
60076;SDS011;45950;45.208;20.374;2024-02-26T00:15:42;16.15;;;11.27;;
60076;SDS011;45950;45.208;20.374;2024-02-26T00:18:22;17.42;;;10.57;;
60076;SDS011;45950;45.208;20.374;2024-02-26T00:20:49;18.40;;;12.13;;
60076;SDS011;45950;45.208;20.374;2024-02-26T00:23:15;17.80;;;12.38;;
60076;SDS011;45950;45.208;20.374;2024-02-26T00:28:46;17.08;;;12.00;;
60076;SDS011;45950;45.208;20.374;2024-02-26T00:31:13;18.83;;;13.60;;
60076;SDS011;45950;45.208;20.374;2024-02-26T00:33:40;15.45;;;11.25;;
60076;SDS011;45950;45.208;20.374;2024-02-26T00:38:56;16.58;;;11.95;;
60076;SDS011;45950;45.208;20.374;2024-02-26T00:41:23;21.55;;;12.18;;
60076;SDS011;45950;45.208;20.374;2024-02-26T00:43:51;18.35;;;13.90;;
60076;SDS011;45950;45.208;20.374;2024-02-26T00:46:17;16.10;;;11.68;;
60076;SDS011;45950;45.208;20.374;2024-02-26T00:48:44;16.30;;;13.02;;
60076;SDS011;45950;45.208;20.374;2024-02-26T00:51:10;17.95;;;13.15;;
60076;SDS011;45950;45.208;20.374;2024-02-26T00:53:37;18.42;;;13.73;;
60076;SDS011;45950;45.208;20.374;2024-02-26T00:56:03;16.20;;;12.80;;
60076;SDS011;45950;45.208;20.374;2024-02-26T00:58:30;17.58;;;12.70;;
60076;SDS011;45950;45.208;20.374;2024-02-26T01:00:59;17.50;;;14.18;;
60076;SDS011;45950;45.208;20.374;2024-02-26T01:03:25;19.17;;;14.45;;
60076;SDS011;45950;45.208;20.374;2024-02-26T01:05:52;22.13;;;15.82;;
60076;SDS011;45950;45.208;20.374;2024-02-26T01:08:19;20.80;;;15.23;;
60076;SDS011;45950;45.208;20.374;2024-02-26T01:10:45;20.95;;;13.98;;
60076;SDS011;45950;45.208;20.374;2024-02-26T01:13:12;20.27;;;14.25;;
60076;SDS011;45950;45.208;20.374;2024-02-26T01:15:39;30.20;;;20.35;;
60076;SDS011;45950;45.208;20.374;2024-02-26T01:18:16;21.30;;;15.98;;
60076;SDS011;45950;45.208;20.374;2024-02-26T01:20:43;22.70;;;16.35;;
60076;SDS011;45950;45.208;20.374;2024-02-26T01:23:09;21.05;;;14.73;;
60076;SDS011;45950;45.208;20.374;2024-02-26T01:25:47;22.92;;;16.27;;
60076;SDS011;45950;45.208;20.374;2024-02-26T01:28:14;23.48;;;16.65;;
60076;SDS011;45950;45.208;20.374;2024-02-26T01:30:41;16.90;;;13.20;;
60076;SDS011;45950;45.208;20.374;2024-02-26T01:33:08;18.20;;;13.05;;
60076;SDS011;45950;45.208;20.374;2024-02-26T01:35:36;16.73;;;12.63;;
60076;SDS011;45950;45.208;20.374;2024-02-26T01:38:03;21.75;;;15.23;;
60076;SDS011;45950;45.208;20.374;2024-02-26T01:43:33;21.25;;;14.63;;
60076;SDS011;45950;45.208;20.374;2024-02-26T01:46:00;26.98;;;19.70;;
60076;SDS011;45950;45.208;20.374;2024-02-26T01:48:26;23.45;;;17.15;;
60076;SDS011;45950;45.208;20.374;2024-02-26T01:50:55;18.00;;;14.48;;
60076;SDS011;45950;45.208;20.374;2024-02-26T01:53:21;27.00;;;19.08;;
60076;SDS011;45950;45.208;20.374;2024-02-26T01:55:48;21.67;;;15.98;;
60076;SDS011;45950;45.208;20.374;2024-02-26T01:58:15;20.15;;;14.30;;
60076;SDS011;45950;45.208;20.374;2024-02-26T02:00:42;23.98;;;16.92;;
60076;SDS011;45950;45.208;20.374;2024-02-26T02:03:08;23.50;;;15.63;;
60076;SDS011;45950;45.208;20.374;2024-02-26T02:05:35;16.20;;;12.02;;
60076;SDS011;45950;45.208;20.374;2024-02-26T02:08:08;21.35;;;14.13;;
60076;SDS011;45950;45.208;20.374;2024-02-26T02:10:35;21.00;;;14.73;;
60076;SDS011;45950;45.208;20.374;2024-02-26T02:13:01;18.85;;;13.60;;
60076;SDS011;45950;45.208;20.374;2024-02-26T02:15:28;20.00;;;14.68;;
60076;SDS011;45950;45.208;20.374;2024-02-26T02:17:54;16.40;;;12.25;;
60076;SDS011;45950;45.208;20.374;2024-02-26T02:20:24;16.90;;;12.18;;
60076;SDS011;45950;45.208;20.374;2024-02-26T02:22:52;17.27;;;12.07;;
60076;SDS011;45950;45.208;20.374;2024-02-26T02:25:19;18.10;;;11.27;;
60076;SDS011;45950;45.208;20.374;2024-02-26T02:27:45;14.30;;;10.70;;
60076;SDS011;45950;45.208;20.374;2024-02-26T02:30:12;20.35;;;13.48;;
60076;SDS011;45950;45.208;20.374;2024-02-26T02:32:40;23.98;;;14.57;;
60076;SDS011;45950;45.208;20.374;2024-02-26T02:35:07;22.95;;;15.13;;
60076;SDS011;45950;45.208;20.374;2024-02-26T02:37:35;20.88;;;14.10;;
60076;SDS011;45950;45.208;20.374;2024-02-26T02:40:02;35.10;;;19.70;;
60076;SDS011;45950;45.208;20.374;2024-02-26T02:42:29;23.27;;;14.88;;
60076;SDS011;45950;45.208;20.374;2024-02-26T02:44:55;23.30;;;14.85;;
60076;SDS011;45950;45.208;20.374;2024-02-26T02:47:22;82.65;;;41.80;;
60076;SDS011;45950;45.208;20.374;2024-02-26T02:49:49;119.65;;;64.13;;
60076;SDS011;45950;45.208;20.374;2024-02-26T02:52:15;96.57;;;51.70;;
60076;SDS011;45950;45.208;20.374;2024-02-26T02:54:43;104.10;;;55.53;;
60076;SDS011;45950;45.208;20.374;2024-02-26T02:57:12;64.15;;;37.03;;
60076;SDS011;45950;45.208;20.374;2024-02-26T02:59:38;99.40;;;53.65;;
60076;SDS011;45950;45.208;20.374;2024-02-26T03:02:05;91.60;;;48.63;;
60076;SDS011;45950;45.208;20.374;2024-02-26T03:04:32;33.85;;;22.33;;
60076;SDS011;45950;45.208;20.374;2024-02-26T03:06:58;27.95;;;17.70;;
60076;SDS011;45950;45.208;20.374;2024-02-26T03:09:25;17.48;;;13.95;;
60076;SDS011;45950;45.208;20.374;2024-02-26T03:11:53;21.42;;;15.85;;
60076;SDS011;45950;45.208;20.374;2024-02-26T03:14:20;20.35;;;16.20;;
60076;SDS011;45950;45.208;20.374;2024-02-26T03:16:46;20.35;;;16.38;;
60076;SDS011;45950;45.208;20.374;2024-02-26T03:19:14;19.55;;;15.80;;
60076;SDS011;45950;45.208;20.374;2024-02-26T03:21:40;20.63;;;15.50;;
60076;SDS011;45950;45.208;20.374;2024-02-26T03:24:07;18.75;;;14.50;;
60076;SDS011;45950;45.208;20.374;2024-02-26T03:26:39;20.30;;;16.45;;
60076;SDS011;45950;45.208;20.374;2024-02-26T03:29:07;16.63;;;14.48;;
60076;SDS011;45950;45.208;20.374;2024-02-26T03:31:34;20.90;;;14.65;;
60076;SDS011;45950;45.208;20.374;2024-02-26T03:34:00;18.65;;;15.00;;
60076;SDS011;45950;45.208;20.374;2024-02-26T03:36:27;20.58;;;16.35;;
60076;SDS011;45950;45.208;20.374;2024-02-26T03:38:53;19.10;;;14.70;;
60076;SDS011;45950;45.208;20.374;2024-02-26T03:41:20;19.35;;;14.13;;
60076;SDS011;45950;45.208;20.374;2024-02-26T03:43:45;21.33;;;15.60;;
60076;SDS011;45950;45.208;20.374;2024-02-26T03:46:14;20.23;;;14.63;;
60076;SDS011;45950;45.208;20.374;2024-02-26T03:48:41;23.52;;;16.02;;
60076;SDS011;45950;45.208;20.374;2024-02-26T03:51:08;21.17;;;14.63;;
60076;SDS011;45950;45.208;20.374;2024-02-26T03:53:34;19.00;;;14.18;;
60076;SDS011;45950;45.208;20.374;2024-02-26T03:58:49;23.20;;;17.48;;
60076;SDS011;45950;45.208;20.374;2024-02-26T04:01:17;26.48;;;19.70;;
60076;SDS011;45950;45.208;20.374;2024-02-26T04:03:44;32.10;;;20.95;;
60076;SDS011;45950;45.208;20.374;2024-02-26T04:06:11;27.50;;;20.10;;
60076;SDS011;45950;45.208;20.374;2024-02-26T04:08:39;38.20;;;30.40;;
60076;SDS011;45950;45.208;20.374;2024-02-26T04:11:05;26.08;;;18.42;;
60076;SDS011;45950;45.208;20.374;2024-02-26T04:13:32;27.35;;;17.23;;
60076;SDS011;45950;45.208;20.374;2024-02-26T04:15:59;21.58;;;15.73;;
60076;SDS011;45950;45.208;20.374;2024-02-26T04:18:34;26.77;;;17.85;;
60076;SDS011;45950;45.208;20.374;2024-02-26T04:23:27;23.52;;;16.90;;
60076;SDS011;45950;45.208;20.374;2024-02-26T04:26:05;20.80;;;16.27;;
60076;SDS011;45950;45.208;20.374;2024-02-26T04:28:31;24.52;;;17.58;;
60076;SDS011;45950;45.208;20.374;2024-02-26T04:30:58;22.30;;;16.80;;
60076;SDS011;45950;45.208;20.374;2024-02-26T04:36:14;25.83;;;19.08;;
60076;SDS011;45950;45.208;20.374;2024-02-26T04:38:41;30.27;;;20.55;;
60076;SDS011;45950;45.208;20.374;2024-02-26T04:41:08;26.42;;;19.67;;
60076;SDS011;45950;45.208;20.374;2024-02-26T04:43:34;29.10;;;21.52;;
60076;SDS011;45950;45.208;20.374;2024-02-26T04:46:06;30.35;;;21.58;;
60076;SDS011;45950;45.208;20.374;2024-02-26T04:51:20;30.33;;;23.08;;
60076;SDS011;45950;45.208;20.374;2024-02-26T04:53:46;31.15;;;20.48;;
60076;SDS011;45950;45.208;20.374;2024-02-26T04:56:13;29.15;;;20.60;;
60076;SDS011;45950;45.208;20.374;2024-02-26T04:58:39;26.00;;;19.90;;
60076;SDS011;45950;45.208;20.374;2024-02-26T05:01:06;36.67;;;24.90;;
60076;SDS011;45950;45.208;20.374;2024-02-26T05:03:35;39.33;;;26.73;;
60076;SDS011;45950;45.208;20.374;2024-02-26T05:06:10;37.97;;;27.35;;
60076;SDS011;45950;45.208;20.374;2024-02-26T05:08:39;48.42;;;34.00;;
60076;SDS011;45950;45.208;20.374;2024-02-26T05:11:06;32.83;;;24.10;;
60076;SDS011;45950;45.208;20.374;2024-02-26T05:13:32;32.92;;;23.80;;
60076;SDS011;45950;45.208;20.374;2024-02-26T05:15:59;27.17;;;20.73;;
60076;SDS011;45950;45.208;20.374;2024-02-26T05:18:27;27.73;;;20.50;;
60076;SDS011;45950;45.208;20.374;2024-02-26T05:21:11;33.08;;;23.35;;
60076;SDS011;45950;45.208;20.374;2024-02-26T05:23:40;36.30;;;27.45;;
60076;SDS011;45950;45.208;20.374;2024-02-26T05:26:08;32.97;;;23.30;;
60076;SDS011;45950;45.208;20.374;2024-02-26T05:28:50;31.10;;;23.35;;
60076;SDS011;45950;45.208;20.374;2024-02-26T05:31:16;35.60;;;27.38;;
60076;SDS011;45950;45.208;20.374;2024-02-26T05:33:43;37.03;;;25.98;;
60076;SDS011;45950;45.208;20.374;2024-02-26T05:36:10;33.75;;;24.02;;
60076;SDS011;45950;45.208;20.374;2024-02-26T05:38:45;31.03;;;22.30;;
60076;SDS011;45950;45.208;20.374;2024-02-26T05:41:16;35.90;;;24.30;;
60076;SDS011;45950;45.208;20.374;2024-02-26T05:43:48;34.20;;;23.90;;
60076;SDS011;45950;45.208;20.374;2024-02-26T05:46:16;31.10;;;22.73;;
60076;SDS011;45950;45.208;20.374;2024-02-26T05:51:45;35.72;;;23.60;;
60076;SDS011;45950;45.208;20.374;2024-02-26T05:54:13;42.15;;;26.98;;
60076;SDS011;45950;45.208;20.374;2024-02-26T05:56:41;48.50;;;32.13;;
60076;SDS011;45950;45.208;20.374;2024-02-26T05:59:07;46.08;;;31.35;;
60076;SDS011;45950;45.208;20.374;2024-02-26T06:04:36;35.35;;;24.65;;
60076;SDS011;45950;45.208;20.374;2024-02-26T06:07:03;32.85;;;23.17;;
60076;SDS011;45950;45.208;20.374;2024-02-26T06:12:36;34.53;;;23.42;;
60076;SDS011;45950;45.208;20.374;2024-02-26T06:15:03;38.53;;;26.42;;
60076;SDS011;45950;45.208;20.374;2024-02-26T06:17:30;36.33;;;24.05;;
60076;SDS011;45950;45.208;20.374;2024-02-26T06:19:56;33.78;;;22.65;;
60076;SDS011;45950;45.208;20.374;2024-02-26T06:22:24;37.33;;;23.85;;
60076;SDS011;45950;45.208;20.374;2024-02-26T06:24:51;44.10;;;30.60;;
60076;SDS011;45950;45.208;20.374;2024-02-26T06:27:17;40.83;;;27.20;;
60076;SDS011;45950;45.208;20.374;2024-02-26T06:29:45;37.15;;;25.17;;
60076;SDS011;45950;45.208;20.374;2024-02-26T06:32:13;34.28;;;23.27;;
60076;SDS011;45950;45.208;20.374;2024-02-26T06:34:40;33.72;;;22.70;;
60076;SDS011;45950;45.208;20.374;2024-02-26T06:37:07;36.17;;;24.65;;
60076;SDS011;45950;45.208;20.374;2024-02-26T06:39:34;32.35;;;22.48;;
60076;SDS011;45950;45.208;20.374;2024-02-26T06:42:00;36.13;;;24.27;;
60076;SDS011;45950;45.208;20.374;2024-02-26T06:44:27;35.95;;;24.35;;
60076;SDS011;45950;45.208;20.374;2024-02-26T06:46:58;39.05;;;27.27;;
60076;SDS011;45950;45.208;20.374;2024-02-26T06:49:25;38.42;;;23.33;;
60076;SDS011;45950;45.208;20.374;2024-02-26T06:51:52;34.35;;;23.63;;
60076;SDS011;45950;45.208;20.374;2024-02-26T06:54:18;32.92;;;22.77;;
60076;SDS011;45950;45.208;20.374;2024-02-26T06:56:45;34.90;;;22.67;;
60076;SDS011;45950;45.208;20.374;2024-02-26T06:59:12;32.95;;;20.95;;
60076;SDS011;45950;45.208;20.374;2024-02-26T07:01:39;33.80;;;22.48;;
60076;SDS011;45950;45.208;20.374;2024-02-26T07:04:07;36.75;;;23.55;;
60076;SDS011;45950;45.208;20.374;2024-02-26T07:06:36;39.00;;;22.75;;
60076;SDS011;45950;45.208;20.374;2024-02-26T07:09:02;36.88;;;23.25;;
60076;SDS011;45950;45.208;20.374;2024-02-26T07:14:18;34.42;;;22.95;;
60076;SDS011;45950;45.208;20.374;2024-02-26T07:16:45;33.13;;;23.17;;
60076;SDS011;45950;45.208;20.374;2024-02-26T07:19:14;39.05;;;26.15;;
60076;SDS011;45950;45.208;20.374;2024-02-26T07:21:40;36.95;;;25.10;;
60076;SDS011;45950;45.208;20.374;2024-02-26T07:24:07;37.70;;;24.13;;
60076;SDS011;45950;45.208;20.374;2024-02-26T07:26:50;36.00;;;21.58;;
60076;SDS011;45950;45.208;20.374;2024-02-26T07:29:16;42.80;;;27.83;;
60076;SDS011;45950;45.208;20.374;2024-02-26T07:31:43;44.20;;;26.27;;
60076;SDS011;45950;45.208;20.374;2024-02-26T07:34:11;41.33;;;26.88;;
60076;SDS011;45950;45.208;20.374;2024-02-26T07:36:39;42.30;;;27.42;;
60076;SDS011;45950;45.208;20.374;2024-02-26T07:39:06;32.85;;;22.30;;
60076;SDS011;45950;45.208;20.374;2024-02-26T07:41:32;33.85;;;23.38;;
60076;SDS011;45950;45.208;20.374;2024-02-26T07:43:59;35.17;;;21.63;;
60076;SDS011;45950;45.208;20.374;2024-02-26T07:46:26;32.35;;;19.50;;
60076;SDS011;45950;45.208;20.374;2024-02-26T07:48:52;38.42;;;23.92;;
60076;SDS011;45950;45.208;20.374;2024-02-26T07:51:19;33.75;;;22.52;;
60076;SDS011;45950;45.208;20.374;2024-02-26T07:53:47;37.20;;;24.33;;
60076;SDS011;45950;45.208;20.374;2024-02-26T07:56:14;34.25;;;22.20;;
60076;SDS011;45950;45.208;20.374;2024-02-26T07:58:40;35.60;;;24.40;;
60076;SDS011;45950;45.208;20.374;2024-02-26T08:01:07;32.80;;;21.80;;
60076;SDS011;45950;45.208;20.374;2024-02-26T08:03:33;35.10;;;24.88;;
60076;SDS011;45950;45.208;20.374;2024-02-26T08:06:01;31.20;;;23.33;;
60076;SDS011;45950;45.208;20.374;2024-02-26T08:08:27;32.65;;;23.13;;
60076;SDS011;45950;45.208;20.374;2024-02-26T08:10:55;29.55;;;20.25;;
60076;SDS011;45950;45.208;20.374;2024-02-26T08:13:22;31.30;;;23.45;;
60076;SDS011;45950;45.208;20.374;2024-02-26T08:15:49;32.00;;;22.02;;
60076;SDS011;45950;45.208;20.374;2024-02-26T08:18:15;33.83;;;22.55;;
60076;SDS011;45950;45.208;20.374;2024-02-26T08:20:42;33.72;;;22.38;;
60076;SDS011;45950;45.208;20.374;2024-02-26T08:23:09;34.03;;;23.08;;
60076;SDS011;45950;45.208;20.374;2024-02-26T08:25:35;35.35;;;23.63;;
60076;SDS011;45950;45.208;20.374;2024-02-26T08:28:03;35.88;;;22.58;;
60076;SDS011;45950;45.208;20.374;2024-02-26T08:30:30;29.48;;;21.23;;
60076;SDS011;45950;45.208;20.374;2024-02-26T08:32:59;28.40;;;20.42;;
60076;SDS011;45950;45.208;20.374;2024-02-26T08:35:25;23.73;;;16.33;;
60076;SDS011;45950;45.208;20.374;2024-02-26T08:37:52;26.13;;;16.58;;
60076;SDS011;45950;45.208;20.374;2024-02-26T08:40:19;30.17;;;19.33;;
60076;SDS011;45950;45.208;20.374;2024-02-26T08:42:45;25.48;;;16.10;;
60076;SDS011;45950;45.208;20.374;2024-02-26T08:45:13;23.50;;;16.92;;
60076;SDS011;45950;45.208;20.374;2024-02-26T08:47:40;21.65;;;15.73;;
60076;SDS011;45950;45.208;20.374;2024-02-26T08:50:07;26.20;;;19.08;;
60076;SDS011;45950;45.208;20.374;2024-02-26T08:52:35;27.58;;;20.02;;
60076;SDS011;45950;45.208;20.374;2024-02-26T08:55:02;24.08;;;15.77;;
60076;SDS011;45950;45.208;20.374;2024-02-26T08:57:29;27.30;;;19.35;;
60076;SDS011;45950;45.208;20.374;2024-02-26T08:59:58;21.95;;;15.98;;
60076;SDS011;45950;45.208;20.374;2024-02-26T09:02:26;21.25;;;16.55;;
60076;SDS011;45950;45.208;20.374;2024-02-26T09:04:53;25.42;;;15.93;;
60076;SDS011;45950;45.208;20.374;2024-02-26T09:07:20;20.30;;;15.07;;
60076;SDS011;45950;45.208;20.374;2024-02-26T09:09:47;18.20;;;12.85;;
60076;SDS011;45950;45.208;20.374;2024-02-26T09:12:13;23.60;;;14.32;;
60076;SDS011;45950;45.208;20.374;2024-02-26T09:14:40;19.13;;;13.30;;
60076;SDS011;45950;45.208;20.374;2024-02-26T09:17:06;20.10;;;13.23;;
60076;SDS011;45950;45.208;20.374;2024-02-26T09:19:34;16.33;;;12.63;;
60076;SDS011;45950;45.208;20.374;2024-02-26T09:22:02;18.73;;;13.73;;
60076;SDS011;45950;45.208;20.374;2024-02-26T09:24:29;21.35;;;14.40;;
60076;SDS011;45950;45.208;20.374;2024-02-26T09:26:55;16.50;;;12.45;;
60076;SDS011;45950;45.208;20.374;2024-02-26T09:29:22;16.85;;;12.63;;
60076;SDS011;45950;45.208;20.374;2024-02-26T09:34:46;17.63;;;11.50;;
60076;SDS011;45950;45.208;20.374;2024-02-26T09:37:13;20.55;;;13.95;;
60076;SDS011;45950;45.208;20.374;2024-02-26T09:39:40;18.00;;;12.00;;
60076;SDS011;45950;45.208;20.374;2024-02-26T09:42:06;17.13;;;12.20;;
60076;SDS011;45950;45.208;20.374;2024-02-26T09:44:36;16.50;;;12.43;;
60076;SDS011;45950;45.208;20.374;2024-02-26T09:47:07;19.50;;;13.35;;
60076;SDS011;45950;45.208;20.374;2024-02-26T09:49:34;14.20;;;11.43;;
60076;SDS011;45950;45.208;20.374;2024-02-26T09:52:03;16.45;;;11.60;;
60076;SDS011;45950;45.208;20.374;2024-02-26T09:54:30;18.60;;;12.82;;
60076;SDS011;45950;45.208;20.374;2024-02-26T09:56:57;22.35;;;14.38;;
60076;SDS011;45950;45.208;20.374;2024-02-26T09:59:25;18.08;;;12.40;;
60076;SDS011;45950;45.208;20.374;2024-02-26T10:01:52;20.88;;;12.15;;
60076;SDS011;45950;45.208;20.374;2024-02-26T10:04:19;17.95;;;12.20;;
60076;SDS011;45950;45.208;20.374;2024-02-26T10:06:46;17.70;;;11.32;;
60076;SDS011;45950;45.208;20.374;2024-02-26T10:09:14;15.90;;;11.23;;
60076;SDS011;45950;45.208;20.374;2024-02-26T10:11:41;11.23;;;8.77;;
60076;SDS011;45950;45.208;20.374;2024-02-26T10:14:08;16.00;;;10.90;;
60076;SDS011;45950;45.208;20.374;2024-02-26T10:16:35;18.10;;;11.73;;
60076;SDS011;45950;45.208;20.374;2024-02-26T10:19:01;14.10;;;10.02;;
60076;SDS011;45950;45.208;20.374;2024-02-26T10:21:28;15.30;;;9.65;;
60076;SDS011;45950;45.208;20.374;2024-02-26T10:23:55;12.88;;;9.45;;
60076;SDS011;45950;45.208;20.374;2024-02-26T10:26:23;13.50;;;10.68;;
60076;SDS011;45950;45.208;20.374;2024-02-26T10:28:49;14.85;;;10.65;;
60076;SDS011;45950;45.208;20.374;2024-02-26T10:31:18;14.82;;;10.45;;
60076;SDS011;45950;45.208;20.374;2024-02-26T10:33:45;15.05;;;11.40;;
60076;SDS011;45950;45.208;20.374;2024-02-26T10:36:11;12.77;;;10.07;;
60076;SDS011;45950;45.208;20.374;2024-02-26T10:38:47;12.73;;;10.10;;
60076;SDS011;45950;45.208;20.374;2024-02-26T10:41:14;13.88;;;7.93;;
60076;SDS011;45950;45.208;20.374;2024-02-26T10:43:43;12.15;;;9.55;;
60076;SDS011;45950;45.208;20.374;2024-02-26T10:49:13;11.10;;;7.90;;
60076;SDS011;45950;45.208;20.374;2024-02-26T10:51:40;11.38;;;8.48;;
60076;SDS011;45950;45.208;20.374;2024-02-26T10:54:09;11.48;;;9.30;;
60076;SDS011;45950;45.208;20.374;2024-02-26T10:56:38;13.63;;;9.90;;
60076;SDS011;45950;45.208;20.374;2024-02-26T10:59:10;11.40;;;9.40;;
60076;SDS011;45950;45.208;20.374;2024-02-26T11:01:36;14.38;;;9.50;;
60076;SDS011;45950;45.208;20.374;2024-02-26T11:04:04;15.82;;;10.77;;
60076;SDS011;45950;45.208;20.374;2024-02-26T11:06:31;18.88;;;14.70;;
60076;SDS011;45950;45.208;20.374;2024-02-26T11:08:59;18.55;;;13.25;;
60076;SDS011;45950;45.208;20.374;2024-02-26T11:11:27;18.38;;;12.32;;
60076;SDS011;45950;45.208;20.374;2024-02-26T11:13:54;17.75;;;14.07;;
60076;SDS011;45950;45.208;20.374;2024-02-26T11:16:22;13.13;;;11.13;;
60076;SDS011;45950;45.208;20.374;2024-02-26T11:18:49;11.30;;;9.15;;
60076;SDS011;45950;45.208;20.374;2024-02-26T11:21:16;12.73;;;8.75;;
60076;SDS011;45950;45.208;20.374;2024-02-26T11:23:43;9.70;;;7.28;;
60076;SDS011;45950;45.208;20.374;2024-02-26T11:26:10;12.40;;;8.27;;
60076;SDS011;45950;45.208;20.374;2024-02-26T11:28:38;16.38;;;12.43;;
60076;SDS011;45950;45.208;20.374;2024-02-26T11:31:04;12.20;;;8.30;;
60076;SDS011;45950;45.208;20.374;2024-02-26T11:33:34;11.43;;;8.18;;
60076;SDS011;45950;45.208;20.374;2024-02-26T11:36:01;11.45;;;8.07;;
60076;SDS011;45950;45.208;20.374;2024-02-26T11:38:28;13.50;;;8.25;;
60076;SDS011;45950;45.208;20.374;2024-02-26T11:40:55;9.68;;;7.45;;
60076;SDS011;45950;45.208;20.374;2024-02-26T11:43:23;10.27;;;7.53;;
60076;SDS011;45950;45.208;20.374;2024-02-26T11:45:50;10.07;;;7.97;;
60076;SDS011;45950;45.208;20.374;2024-02-26T11:48:21;11.20;;;7.50;;
60076;SDS011;45950;45.208;20.374;2024-02-26T11:50:49;12.75;;;8.05;;
60076;SDS011;45950;45.208;20.374;2024-02-26T11:53:19;12.10;;;9.00;;
60076;SDS011;45950;45.208;20.374;2024-02-26T11:58:34;13.00;;;9.02;;
60076;SDS011;45950;45.208;20.374;2024-02-26T12:01:02;12.05;;;7.68;;
60076;SDS011;45950;45.208;20.374;2024-02-26T12:03:29;10.63;;;7.50;;
60076;SDS011;45950;45.208;20.374;2024-02-26T12:05:57;11.32;;;8.45;;
60076;SDS011;45950;45.208;20.374;2024-02-26T12:08:38;24.70;;;15.80;;
60076;SDS011;45950;45.208;20.374;2024-02-26T12:11:05;28.58;;;16.85;;
60076;SDS011;45950;45.208;20.374;2024-02-26T12:13:40;26.58;;;15.57;;
60076;SDS011;45950;45.208;20.374;2024-02-26T12:16:07;17.13;;;10.65;;
60076;SDS011;45950;45.208;20.374;2024-02-26T12:18:34;25.75;;;16.83;;
60076;SDS011;45950;45.208;20.374;2024-02-26T12:21:02;24.27;;;14.68;;
60076;SDS011;45950;45.208;20.374;2024-02-26T12:23:29;18.88;;;14.85;;
60076;SDS011;45950;45.208;20.374;2024-02-26T12:25:58;30.27;;;19.90;;
60076;SDS011;45950;45.208;20.374;2024-02-26T12:28:27;24.77;;;16.00;;
60076;SDS011;45950;45.208;20.374;2024-02-26T12:30:53;13.73;;;8.43;;
60076;SDS011;45950;45.208;20.374;2024-02-26T12:33:20;15.13;;;9.23;;
60076;SDS011;45950;45.208;20.374;2024-02-26T12:35:47;10.07;;;6.28;;
60076;SDS011;45950;45.208;20.374;2024-02-26T12:38:16;14.15;;;5.88;;
60076;SDS011;45950;45.208;20.374;2024-02-26T12:40:42;10.48;;;6.35;;
60076;SDS011;45950;45.208;20.374;2024-02-26T12:43:09;8.32;;;6.00;;
60076;SDS011;45950;45.208;20.374;2024-02-26T12:45:38;6.97;;;5.68;;
60076;SDS011;45950;45.208;20.374;2024-02-26T12:50:58;10.65;;;6.68;;
60076;SDS011;45950;45.208;20.374;2024-02-26T12:53:27;7.00;;;5.18;;
60076;SDS011;45950;45.208;20.374;2024-02-26T12:55:54;9.32;;;6.43;;
60076;SDS011;45950;45.208;20.374;2024-02-26T12:58:21;6.43;;;4.78;;
60076;SDS011;45950;45.208;20.374;2024-02-26T13:00:49;6.28;;;5.13;;
60076;SDS011;45950;45.208;20.374;2024-02-26T13:06:19;10.98;;;6.93;;
60076;SDS011;45950;45.208;20.374;2024-02-26T13:08:48;7.80;;;5.78;;
60076;SDS011;45950;45.208;20.374;2024-02-26T13:11:15;9.57;;;5.85;;
60076;SDS011;45950;45.208;20.374;2024-02-26T13:13:41;11.77;;;7.22;;
60076;SDS011;45950;45.208;20.374;2024-02-26T13:16:14;10.63;;;5.85;;
60076;SDS011;45950;45.208;20.374;2024-02-26T13:18:41;6.65;;;5.25;;
60076;SDS011;45950;45.208;20.374;2024-02-26T13:21:09;7.72;;;6.22;;
60076;SDS011;45950;45.208;20.374;2024-02-26T13:23:37;8.98;;;6.20;;
60076;SDS011;45950;45.208;20.374;2024-02-26T13:26:05;11.98;;;8.02;;
60076;SDS011;45950;45.208;20.374;2024-02-26T13:28:33;18.58;;;12.68;;
60076;SDS011;45950;45.208;20.374;2024-02-26T13:31:13;12.45;;;8.25;;
60076;SDS011;45950;45.208;20.374;2024-02-26T13:33:39;19.52;;;12.70;;
60076;SDS011;45950;45.208;20.374;2024-02-26T13:39:20;28.70;;;17.50;;
60076;SDS011;45950;45.208;20.374;2024-02-26T13:41:48;22.45;;;15.18;;
60076;SDS011;45950;45.208;20.374;2024-02-26T13:44:15;27.30;;;18.23;;
60076;SDS011;45950;45.208;20.374;2024-02-26T13:46:42;20.15;;;12.70;;
60076;SDS011;45950;45.208;20.374;2024-02-26T13:49:09;11.63;;;8.13;;
60076;SDS011;45950;45.208;20.374;2024-02-26T13:51:35;11.15;;;8.23;;
60076;SDS011;45950;45.208;20.374;2024-02-26T13:54:02;9.23;;;6.13;;
60076;SDS011;45950;45.208;20.374;2024-02-26T13:56:29;7.05;;;4.88;;
60076;SDS011;45950;45.208;20.374;2024-02-26T13:58:57;6.55;;;5.55;;
60076;SDS011;45950;45.208;20.374;2024-02-26T14:01:23;8.77;;;5.88;;
60076;SDS011;45950;45.208;20.374;2024-02-26T14:03:50;8.65;;;5.82;;
60076;SDS011;45950;45.208;20.374;2024-02-26T14:06:20;6.50;;;5.18;;
60076;SDS011;45950;45.208;20.374;2024-02-26T14:08:46;8.57;;;5.07;;
60076;SDS011;45950;45.208;20.374;2024-02-26T14:11:13;8.50;;;5.57;;
60076;SDS011;45950;45.208;20.374;2024-02-26T14:13:40;16.52;;;13.38;;
60076;SDS011;45950;45.208;20.374;2024-02-26T14:16:08;11.60;;;9.93;;
60076;SDS011;45950;45.208;20.374;2024-02-26T14:18:35;8.45;;;7.00;;
60076;SDS011;45950;45.208;20.374;2024-02-26T14:21:02;8.35;;;6.35;;
60076;SDS011;45950;45.208;20.374;2024-02-26T14:23:29;8.80;;;6.60;;
60076;SDS011;45950;45.208;20.374;2024-02-26T14:25:55;7.30;;;5.80;;
60076;SDS011;45950;45.208;20.374;2024-02-26T14:28:22;7.70;;;6.13;;
60076;SDS011;45950;45.208;20.374;2024-02-26T14:30:50;8.77;;;5.53;;
60076;SDS011;45950;45.208;20.374;2024-02-26T14:33:18;8.80;;;5.00;;
60076;SDS011;45950;45.208;20.374;2024-02-26T14:38:48;11.45;;;6.35;;
60076;SDS011;45950;45.208;20.374;2024-02-26T14:41:15;11.00;;;6.55;;
60076;SDS011;45950;45.208;20.374;2024-02-26T14:43:41;9.38;;;5.45;;
60076;SDS011;45950;45.208;20.374;2024-02-26T14:46:08;13.48;;;6.75;;
60076;SDS011;45950;45.208;20.374;2024-02-26T14:48:36;12.90;;;8.18;;
60076;SDS011;45950;45.208;20.374;2024-02-26T14:51:03;10.73;;;7.75;;
60076;SDS011;45950;45.208;20.374;2024-02-26T14:53:31;14.00;;;6.90;;
60076;SDS011;45950;45.208;20.374;2024-02-26T14:55:58;11.00;;;7.25;;
60076;SDS011;45950;45.208;20.374;2024-02-26T14:58:24;12.57;;;7.15;;
60076;SDS011;45950;45.208;20.374;2024-02-26T15:00:51;12.50;;;6.43;;
60076;SDS011;45950;45.208;20.374;2024-02-26T15:03:18;11.20;;;6.72;;
60076;SDS011;45950;45.208;20.374;2024-02-26T15:05:46;12.93;;;7.00;;
60076;SDS011;45950;45.208;20.374;2024-02-26T15:08:25;10.05;;;6.80;;